sensor_id;sensor_type;location;lat;lon;timestamp;temperature;humidity
44900;DHT22;30628;51.188;6.770;2022-07-21T00:02:10;27.50;86.30
44900;DHT22;30628;51.188;6.770;2022-07-21T00:04:36;27.50;86.40
44900;DHT22;30628;51.188;6.770;2022-07-21T00:07:02;27.40;86.30
44900;DHT22;30628;51.188;6.770;2022-07-21T00:09:29;27.40;86.30
44900;DHT22;30628;51.188;6.770;2022-07-21T00:11:55;27.20;88.00
44900;DHT22;30628;51.188;6.770;2022-07-21T00:14:21;27.40;86.50
44900;DHT22;30628;51.188;6.770;2022-07-21T00:16:47;27.40;86.50
44900;DHT22;30628;51.188;6.770;2022-07-21T00:19:13;27.40;85.90
44900;DHT22;30628;51.188;6.770;2022-07-21T00:21:39;27.40;86.50
44900;DHT22;30628;51.188;6.770;2022-07-21T00:24:06;27.40;86.80
44900;DHT22;30628;51.188;6.770;2022-07-21T00:26:32;27.40;86.40
44900;DHT22;30628;51.188;6.770;2022-07-21T00:28:58;27.30;90.00
44900;DHT22;30628;51.188;6.770;2022-07-21T00:31:25;27.30;86.50
44900;DHT22;30628;51.188;6.770;2022-07-21T00:33:51;27.30;86.40
44900;DHT22;30628;51.188;6.770;2022-07-21T00:36:18;27.30;86.20
44900;DHT22;30628;51.188;6.770;2022-07-21T00:38:44;27.30;86.20
44900;DHT22;30628;51.188;6.770;2022-07-21T00:41:11;27.30;86.70
44900;DHT22;30628;51.188;6.770;2022-07-21T00:43:37;27.30;85.90
44900;DHT22;30628;51.188;6.770;2022-07-21T00:46:03;27.20;87.10
44900;DHT22;30628;51.188;6.770;2022-07-21T00:48:29;27.20;86.40
44900;DHT22;30628;51.188;6.770;2022-07-21T00:50:55;27.10;88.30
44900;DHT22;30628;51.188;6.770;2022-07-21T00:53:21;26.90;86.90
44900;DHT22;30628;51.188;6.770;2022-07-21T00:55:47;27.00;87.30
44900;DHT22;30628;51.188;6.770;2022-07-21T00:58:14;27.10;87.10
44900;DHT22;30628;51.188;6.770;2022-07-21T01:00:40;27.10;87.50
44900;DHT22;30628;51.188;6.770;2022-07-21T01:03:07;27.10;87.40
44900;DHT22;30628;51.188;6.770;2022-07-21T01:05:33;26.90;88.90
44900;DHT22;30628;51.188;6.770;2022-07-21T01:08:00;26.90;86.70
44900;DHT22;30628;51.188;6.770;2022-07-21T01:10:29;27.00;87.40
44900;DHT22;30628;51.188;6.770;2022-07-21T01:12:56;26.90;86.80
44900;DHT22;30628;51.188;6.770;2022-07-21T01:15:23;26.90;86.90
44900;DHT22;30628;51.188;6.770;2022-07-21T01:17:50;27.00;86.80
44900;DHT22;30628;51.188;6.770;2022-07-21T01:20:19;27.00;87.20
44900;DHT22;30628;51.188;6.770;2022-07-21T01:22:48;27.00;86.70
44900;DHT22;30628;51.188;6.770;2022-07-21T01:25:16;27.00;86.30
44900;DHT22;30628;51.188;6.770;2022-07-21T01:27:43;27.00;86.70
44900;DHT22;30628;51.188;6.770;2022-07-21T01:30:10;27.00;86.30
44900;DHT22;30628;51.188;6.770;2022-07-21T01:32:38;27.00;87.00
44900;DHT22;30628;51.188;6.770;2022-07-21T01:35:06;27.00;87.00
44900;DHT22;30628;51.188;6.770;2022-07-21T01:37:38;27.00;87.20
44900;DHT22;30628;51.188;6.770;2022-07-21T01:40:07;27.00;87.10
44900;DHT22;30628;51.188;6.770;2022-07-21T01:42:52;27.00;87.40
44900;DHT22;30628;51.188;6.770;2022-07-21T01:45:22;26.90;87.70
44900;DHT22;30628;51.188;6.770;2022-07-21T01:47:49;26.90;87.50
44900;DHT22;30628;51.188;6.770;2022-07-21T01:50:15;26.90;87.20
44900;DHT22;30628;51.188;6.770;2022-07-21T01:52:43;26.80;88.40
44900;DHT22;30628;51.188;6.770;2022-07-21T01:55:09;26.70;88.30
44900;DHT22;30628;51.188;6.770;2022-07-21T01:57:35;26.80;88.20
44900;DHT22;30628;51.188;6.770;2022-07-21T02:00:03;26.70;88.70
44900;DHT22;30628;51.188;6.770;2022-07-21T02:02:29;26.70;89.00
44900;DHT22;30628;51.188;6.770;2022-07-21T02:04:56;26.70;87.80
44900;DHT22;30628;51.188;6.770;2022-07-21T02:07:22;26.70;88.10
44900;DHT22;30628;51.188;6.770;2022-07-21T02:09:48;26.70;88.40
44900;DHT22;30628;51.188;6.770;2022-07-21T02:12:14;26.60;90.10
44900;DHT22;30628;51.188;6.770;2022-07-21T02:14:40;26.50;89.10
44900;DHT22;30628;51.188;6.770;2022-07-21T02:17:06;26.50;89.20
44900;DHT22;30628;51.188;6.770;2022-07-21T02:19:32;26.50;88.40
44900;DHT22;30628;51.188;6.770;2022-07-21T02:21:58;26.50;89.40
44900;DHT22;30628;51.188;6.770;2022-07-21T02:24:25;26.50;89.50
44900;DHT22;30628;51.188;6.770;2022-07-21T02:26:51;26.20;90.60
44900;DHT22;30628;51.188;6.770;2022-07-21T02:29:17;26.30;89.80
44900;DHT22;30628;51.188;6.770;2022-07-21T02:31:43;26.40;89.50
44900;DHT22;30628;51.188;6.770;2022-07-21T02:34:09;26.50;89.40
44900;DHT22;30628;51.188;6.770;2022-07-21T02:36:35;26.40;89.80
44900;DHT22;30628;51.188;6.770;2022-07-21T02:39:02;26.40;89.90
44900;DHT22;30628;51.188;6.770;2022-07-21T02:41:28;26.50;88.60
44900;DHT22;30628;51.188;6.770;2022-07-21T02:43:54;26.50;88.30
44900;DHT22;30628;51.188;6.770;2022-07-21T02:46:20;26.50;88.30
44900;DHT22;30628;51.188;6.770;2022-07-21T02:48:46;26.40;89.40
44900;DHT22;30628;51.188;6.770;2022-07-21T02:51:13;26.40;89.20
44900;DHT22;30628;51.188;6.770;2022-07-21T02:53:39;26.30;89.30
44900;DHT22;30628;51.188;6.770;2022-07-21T02:56:05;26.40;89.10
44900;DHT22;30628;51.188;6.770;2022-07-21T02:58:31;26.30;90.00
44900;DHT22;30628;51.188;6.770;2022-07-21T03:01:03;26.40;88.80
44900;DHT22;30628;51.188;6.770;2022-07-21T03:03:35;26.40;88.90
44900;DHT22;30628;51.188;6.770;2022-07-21T03:06:01;26.40;89.40
44900;DHT22;30628;51.188;6.770;2022-07-21T03:08:28;26.50;88.60
44900;DHT22;30628;51.188;6.770;2022-07-21T03:10:55;26.50;88.70
44900;DHT22;30628;51.188;6.770;2022-07-21T03:13:22;26.50;88.60
44900;DHT22;30628;51.188;6.770;2022-07-21T03:15:48;26.50;88.70
44900;DHT22;30628;51.188;6.770;2022-07-21T03:18:15;26.40;88.70
44900;DHT22;30628;51.188;6.770;2022-07-21T03:20:44;26.30;88.90
44900;DHT22;30628;51.188;6.770;2022-07-21T03:23:10;26.40;89.10
44900;DHT22;30628;51.188;6.770;2022-07-21T03:25:36;26.30;88.80
44900;DHT22;30628;51.188;6.770;2022-07-21T03:28:03;26.30;89.20
44900;DHT22;30628;51.188;6.770;2022-07-21T03:30:30;26.30;88.60
44900;DHT22;30628;51.188;6.770;2022-07-21T03:32:57;26.30;89.00
44900;DHT22;30628;51.188;6.770;2022-07-21T03:35:23;26.30;88.50
44900;DHT22;30628;51.188;6.770;2022-07-21T03:37:53;26.30;89.00
44900;DHT22;30628;51.188;6.770;2022-07-21T03:40:21;26.30;88.60
44900;DHT22;30628;51.188;6.770;2022-07-21T03:42:50;26.30;88.60
44900;DHT22;30628;51.188;6.770;2022-07-21T03:45:17;26.30;88.90
44900;DHT22;30628;51.188;6.770;2022-07-21T03:47:43;26.30;88.80
44900;DHT22;30628;51.188;6.770;2022-07-21T03:50:09;26.30;88.80
44900;DHT22;30628;51.188;6.770;2022-07-21T03:52:38;26.10;89.00
44900;DHT22;30628;51.188;6.770;2022-07-21T03:55:05;26.20;89.20
44900;DHT22;30628;51.188;6.770;2022-07-21T03:57:38;26.20;89.40
44900;DHT22;30628;51.188;6.770;2022-07-21T04:00:22;26.20;89.00
44900;DHT22;30628;51.188;6.770;2022-07-21T04:02:49;26.20;89.40
44900;DHT22;30628;51.188;6.770;2022-07-21T04:05:17;26.20;89.10
44900;DHT22;30628;51.188;6.770;2022-07-21T04:07:45;26.20;89.60
44900;DHT22;30628;51.188;6.770;2022-07-21T04:10:13;26.10;89.50
44900;DHT22;30628;51.188;6.770;2022-07-21T04:12:40;26.20;89.50
44900;DHT22;30628;51.188;6.770;2022-07-21T04:15:08;26.10;89.30
44900;DHT22;30628;51.188;6.770;2022-07-21T04:17:35;26.20;89.40
44900;DHT22;30628;51.188;6.770;2022-07-21T04:20:02;26.10;89.60
44900;DHT22;30628;51.188;6.770;2022-07-21T04:22:28;26.10;89.20
44900;DHT22;30628;51.188;6.770;2022-07-21T04:24:54;26.10;89.80
44900;DHT22;30628;51.188;6.770;2022-07-21T04:27:20;26.10;90.20
44900;DHT22;30628;51.188;6.770;2022-07-21T04:29:47;26.10;89.50
44900;DHT22;30628;51.188;6.770;2022-07-21T04:32:13;26.10;89.60
44900;DHT22;30628;51.188;6.770;2022-07-21T04:34:39;26.10;89.70
44900;DHT22;30628;51.188;6.770;2022-07-21T04:37:05;26.10;90.00
44900;DHT22;30628;51.188;6.770;2022-07-21T04:39:32;26.10;89.70
44900;DHT22;30628;51.188;6.770;2022-07-21T04:41:58;26.10;90.00
44900;DHT22;30628;51.188;6.770;2022-07-21T04:44:24;26.00;89.70
44900;DHT22;30628;51.188;6.770;2022-07-21T04:46:50;26.10;89.80
44900;DHT22;30628;51.188;6.770;2022-07-21T04:49:16;26.00;90.30
44900;DHT22;30628;51.188;6.770;2022-07-21T04:51:43;26.10;89.30
44900;DHT22;30628;51.188;6.770;2022-07-21T04:54:09;26.10;89.90
44900;DHT22;30628;51.188;6.770;2022-07-21T04:56:35;25.90;90.10
44900;DHT22;30628;51.188;6.770;2022-07-21T04:59:03;26.00;90.60
44900;DHT22;30628;51.188;6.770;2022-07-21T05:01:29;25.90;90.40
44900;DHT22;30628;51.188;6.770;2022-07-21T05:03:56;25.90;90.10
44900;DHT22;30628;51.188;6.770;2022-07-21T05:06:22;25.90;91.00
44900;DHT22;30628;51.188;6.770;2022-07-21T05:08:48;25.90;90.40
44900;DHT22;30628;51.188;6.770;2022-07-21T05:11:14;25.90;90.10
44900;DHT22;30628;51.188;6.770;2022-07-21T05:13:41;25.90;90.30
44900;DHT22;30628;51.188;6.770;2022-07-21T05:16:07;26.00;90.10
44900;DHT22;30628;51.188;6.770;2022-07-21T05:18:33;25.90;90.30
44900;DHT22;30628;51.188;6.770;2022-07-21T05:20:59;25.90;90.50
44900;DHT22;30628;51.188;6.770;2022-07-21T05:23:25;25.90;92.90
44900;DHT22;30628;51.188;6.770;2022-07-21T05:25:51;25.90;90.70
44900;DHT22;30628;51.188;6.770;2022-07-21T05:28:17;25.90;90.70
44900;DHT22;30628;51.188;6.770;2022-07-21T05:30:44;25.90;90.30
44900;DHT22;30628;51.188;6.770;2022-07-21T05:33:10;25.90;90.30
44900;DHT22;30628;51.188;6.770;2022-07-21T05:35:36;25.90;90.70
44900;DHT22;30628;51.188;6.770;2022-07-21T05:38:02;25.90;90.40
44900;DHT22;30628;51.188;6.770;2022-07-21T05:40:29;25.90;90.40
44900;DHT22;30628;51.188;6.770;2022-07-21T05:42:55;25.80;91.20
44900;DHT22;30628;51.188;6.770;2022-07-21T05:45:21;25.90;90.30
44900;DHT22;30628;51.188;6.770;2022-07-21T05:47:48;25.90;90.60
44900;DHT22;30628;51.188;6.770;2022-07-21T05:50:14;25.90;90.30
44900;DHT22;30628;51.188;6.770;2022-07-21T05:52:40;25.90;90.20
44900;DHT22;30628;51.188;6.770;2022-07-21T05:55:07;25.90;90.60
44900;DHT22;30628;51.188;6.770;2022-07-21T05:57:34;25.90;91.40
44900;DHT22;30628;51.188;6.770;2022-07-21T06:00:00;25.90;90.50
44900;DHT22;30628;51.188;6.770;2022-07-21T06:02:26;25.80;90.60
44900;DHT22;30628;51.188;6.770;2022-07-21T06:04:56;25.70;93.90
44900;DHT22;30628;51.188;6.770;2022-07-21T06:07:23;25.80;91.80
44900;DHT22;30628;51.188;6.770;2022-07-21T06:09:49;25.80;90.60
44900;DHT22;30628;51.188;6.770;2022-07-21T06:12:15;25.90;90.60
44900;DHT22;30628;51.188;6.770;2022-07-21T06:14:41;25.80;91.00
44900;DHT22;30628;51.188;6.770;2022-07-21T06:17:07;25.80;90.40
44900;DHT22;30628;51.188;6.770;2022-07-21T06:19:33;25.70;91.40
44900;DHT22;30628;51.188;6.770;2022-07-21T06:22:00;25.70;90.90
44900;DHT22;30628;51.188;6.770;2022-07-21T06:24:28;25.70;90.50
44900;DHT22;30628;51.188;6.770;2022-07-21T06:26:54;25.90;90.40
44900;DHT22;30628;51.188;6.770;2022-07-21T06:29:24;25.80;90.60
44900;DHT22;30628;51.188;6.770;2022-07-21T06:31:51;25.90;90.60
44900;DHT22;30628;51.188;6.770;2022-07-21T06:34:17;25.90;91.70
44900;DHT22;30628;51.188;6.770;2022-07-21T06:36:43;26.00;91.10
44900;DHT22;30628;51.188;6.770;2022-07-21T06:39:09;25.90;91.50
44900;DHT22;30628;51.188;6.770;2022-07-21T06:41:39;26.00;92.50
44900;DHT22;30628;51.188;6.770;2022-07-21T06:44:06;26.00;90.60
44900;DHT22;30628;51.188;6.770;2022-07-21T06:46:33;26.10;90.30
44900;DHT22;30628;51.188;6.770;2022-07-21T06:49:01;26.00;90.60
44900;DHT22;30628;51.188;6.770;2022-07-21T06:51:27;26.10;90.70
44900;DHT22;30628;51.188;6.770;2022-07-21T06:53:53;26.10;91.40
44900;DHT22;30628;51.188;6.770;2022-07-21T06:56:20;26.00;92.00
44900;DHT22;30628;51.188;6.770;2022-07-21T06:58:47;26.10;91.50
44900;DHT22;30628;51.188;6.770;2022-07-21T07:01:13;26.20;91.40
44900;DHT22;30628;51.188;6.770;2022-07-21T07:03:42;26.30;91.40
44900;DHT22;30628;51.188;6.770;2022-07-21T07:06:09;26.40;93.10
44900;DHT22;30628;51.188;6.770;2022-07-21T07:08:35;26.50;90.70
44900;DHT22;30628;51.188;6.770;2022-07-21T07:11:03;26.70;92.20
44900;DHT22;30628;51.188;6.770;2022-07-21T07:13:29;26.30;92.20
44900;DHT22;30628;51.188;6.770;2022-07-21T07:15:55;26.10;91.20
44900;DHT22;30628;51.188;6.770;2022-07-21T07:18:21;26.10;91.20
44900;DHT22;30628;51.188;6.770;2022-07-21T07:20:49;26.20;91.50
44900;DHT22;30628;51.188;6.770;2022-07-21T07:23:16;26.50;91.20
44900;DHT22;30628;51.188;6.770;2022-07-21T07:25:43;26.50;92.50
44900;DHT22;30628;51.188;6.770;2022-07-21T07:28:09;26.60;90.70
44900;DHT22;30628;51.188;6.770;2022-07-21T07:30:35;26.50;92.60
44900;DHT22;30628;51.188;6.770;2022-07-21T07:33:02;26.40;91.00
44900;DHT22;30628;51.188;6.770;2022-07-21T07:35:28;26.30;93.00
44900;DHT22;30628;51.188;6.770;2022-07-21T07:37:54;26.30;92.10
44900;DHT22;30628;51.188;6.770;2022-07-21T07:40:22;26.30;91.10
44900;DHT22;30628;51.188;6.770;2022-07-21T07:42:49;26.40;91.40
44900;DHT22;30628;51.188;6.770;2022-07-21T07:45:15;26.60;91.90
44900;DHT22;30628;51.188;6.770;2022-07-21T07:47:42;26.90;91.60
44900;DHT22;30628;51.188;6.770;2022-07-21T07:50:11;26.90;91.20
44900;DHT22;30628;51.188;6.770;2022-07-21T07:52:38;26.90;91.30
44900;DHT22;30628;51.188;6.770;2022-07-21T07:55:05;26.70;92.40
44900;DHT22;30628;51.188;6.770;2022-07-21T07:57:34;26.60;92.40
44900;DHT22;30628;51.188;6.770;2022-07-21T08:00:05;26.60;91.10
44900;DHT22;30628;51.188;6.770;2022-07-21T08:02:31;26.50;91.70
44900;DHT22;30628;51.188;6.770;2022-07-21T08:04:58;26.30;92.70
44900;DHT22;30628;51.188;6.770;2022-07-21T08:07:24;26.20;92.70
44900;DHT22;30628;51.188;6.770;2022-07-21T08:09:50;26.20;92.30
44900;DHT22;30628;51.188;6.770;2022-07-21T08:12:16;26.20;92.80
44900;DHT22;30628;51.188;6.770;2022-07-21T08:14:42;26.20;92.20
44900;DHT22;30628;51.188;6.770;2022-07-21T08:17:09;26.20;91.60
44900;DHT22;30628;51.188;6.770;2022-07-21T08:19:35;26.10;92.30
44900;DHT22;30628;51.188;6.770;2022-07-21T08:22:01;26.20;91.70
44900;DHT22;30628;51.188;6.770;2022-07-21T08:24:27;26.20;91.60
44900;DHT22;30628;51.188;6.770;2022-07-21T08:26:53;26.20;91.70
44900;DHT22;30628;51.188;6.770;2022-07-21T08:29:20;26.20;92.10
44900;DHT22;30628;51.188;6.770;2022-07-21T08:31:46;26.20;91.70
44900;DHT22;30628;51.188;6.770;2022-07-21T08:34:15;26.50;91.10
44900;DHT22;30628;51.188;6.770;2022-07-21T08:36:41;26.60;91.70
44900;DHT22;30628;51.188;6.770;2022-07-21T08:39:07;26.70;91.20
44900;DHT22;30628;51.188;6.770;2022-07-21T08:41:35;26.80;91.90
44900;DHT22;30628;51.188;6.770;2022-07-21T08:44:01;26.90;91.00
44900;DHT22;30628;51.188;6.770;2022-07-21T08:46:28;26.80;91.50
44900;DHT22;30628;51.188;6.770;2022-07-21T08:48:54;26.60;92.60
44900;DHT22;30628;51.188;6.770;2022-07-21T08:51:21;26.40;92.90
44900;DHT22;30628;51.188;6.770;2022-07-21T08:53:47;26.70;92.70
44900;DHT22;30628;51.188;6.770;2022-07-21T08:56:14;26.90;91.20
44900;DHT22;30628;51.188;6.770;2022-07-21T08:58:40;27.00;91.70
44900;DHT22;30628;51.188;6.770;2022-07-21T09:01:06;27.10;90.80
44900;DHT22;30628;51.188;6.770;2022-07-21T09:03:33;27.30;90.60
44900;DHT22;30628;51.188;6.770;2022-07-21T09:06:04;27.30;91.10
44900;DHT22;30628;51.188;6.770;2022-07-21T09:08:41;27.10;91.00
44900;DHT22;30628;51.188;6.770;2022-07-21T09:13:47;27.00;90.90
44900;DHT22;30628;51.188;6.770;2022-07-21T09:16:37;26.80;91.40
44900;DHT22;30628;51.188;6.770;2022-07-21T09:19:04;26.70;92.00
44900;DHT22;30628;51.188;6.770;2022-07-21T09:21:33;26.70;91.50
44900;DHT22;30628;51.188;6.770;2022-07-21T09:24:13;26.90;92.60
44900;DHT22;30628;51.188;6.770;2022-07-21T09:32:26;26.80;91.40
44900;DHT22;30628;51.188;6.770;2022-07-21T09:34:54;26.60;91.10
44900;DHT22;30628;51.188;6.770;2022-07-21T09:37:21;26.60;90.60
44900;DHT22;30628;51.188;6.770;2022-07-21T09:39:51;26.70;90.90
44900;DHT22;30628;51.188;6.770;2022-07-21T09:42:29;26.60;90.70
44900;DHT22;30628;51.188;6.770;2022-07-21T09:47:34;26.60;91.20
44900;DHT22;30628;51.188;6.770;2022-07-21T09:50:01;26.50;90.90
44900;DHT22;30628;51.188;6.770;2022-07-21T09:52:32;26.60;91.00
44900;DHT22;30628;51.188;6.770;2022-07-21T09:55:11;26.70;90.90
44900;DHT22;30628;51.188;6.770;2022-07-21T09:57:38;26.90;90.70
44900;DHT22;30628;51.188;6.770;2022-07-21T10:00:07;26.90;90.30
44900;DHT22;30628;51.188;6.770;2022-07-21T10:02:34;27.10;90.70
44900;DHT22;30628;51.188;6.770;2022-07-21T10:05:05;27.00;90.50
44900;DHT22;30628;51.188;6.770;2022-07-21T10:07:33;26.70;90.80
44900;DHT22;30628;51.188;6.770;2022-07-21T10:09:59;26.50;91.10
44900;DHT22;30628;51.188;6.770;2022-07-21T10:12:26;26.50;91.30
44900;DHT22;30628;51.188;6.770;2022-07-21T10:14:54;26.10;91.40
44900;DHT22;30628;51.188;6.770;2022-07-21T10:17:22;25.90;91.50
44900;DHT22;30628;51.188;6.770;2022-07-21T10:25:22;25.50;92.30
44900;DHT22;30628;51.188;6.770;2022-07-21T10:30:42;25.40;92.90
44900;DHT22;30628;51.188;6.770;2022-07-21T10:33:10;25.20;93.00
44900;DHT22;30628;51.188;6.770;2022-07-21T10:35:41;25.20;93.30
44900;DHT22;30628;51.188;6.770;2022-07-21T10:38:25;25.20;94.20
44900;DHT22;30628;51.188;6.770;2022-07-21T10:40:53;25.50;94.50
44900;DHT22;30628;51.188;6.770;2022-07-21T10:45:52;25.30;94.40
44900;DHT22;30628;51.188;6.770;2022-07-21T10:51:07;25.50;93.30
44900;DHT22;30628;51.188;6.770;2022-07-21T10:53:34;25.60;95.60
44900;DHT22;30628;51.188;6.770;2022-07-21T10:56:01;25.70;94.40
44900;DHT22;30628;51.188;6.770;2022-07-21T10:58:32;25.40;96.10
44900;DHT22;30628;51.188;6.770;2022-07-21T11:03:42;25.60;94.20
44900;DHT22;30628;51.188;6.770;2022-07-21T11:06:14;25.60;94.60
44900;DHT22;30628;51.188;6.770;2022-07-21T11:08:47;25.50;96.30
44900;DHT22;30628;51.188;6.770;2022-07-21T11:11:26;25.60;95.90
44900;DHT22;30628;51.188;6.770;2022-07-21T11:19:44;25.60;95.80
44900;DHT22;30628;51.188;6.770;2022-07-21T11:22:19;25.60;93.90
44900;DHT22;30628;51.188;6.770;2022-07-21T11:24:51;25.30;96.60
44900;DHT22;30628;51.188;6.770;2022-07-21T11:27:20;25.40;96.10
44900;DHT22;30628;51.188;6.770;2022-07-21T11:29:48;25.40;97.30
44900;DHT22;30628;51.188;6.770;2022-07-21T11:32:15;25.60;96.10
44900;DHT22;30628;51.188;6.770;2022-07-21T11:34:45;25.60;95.70
44900;DHT22;30628;51.188;6.770;2022-07-21T11:37:14;25.60;96.90
44900;DHT22;30628;51.188;6.770;2022-07-21T11:39:41;25.50;96.70
44900;DHT22;30628;51.188;6.770;2022-07-21T11:42:13;25.60;94.50
44900;DHT22;30628;51.188;6.770;2022-07-21T11:44:39;25.60;97.20
44900;DHT22;30628;51.188;6.770;2022-07-21T11:47:06;25.50;97.80
44900;DHT22;30628;51.188;6.770;2022-07-21T11:49:35;25.60;94.70
44900;DHT22;30628;51.188;6.770;2022-07-21T11:52:03;25.70;95.90
44900;DHT22;30628;51.188;6.770;2022-07-21T11:54:56;25.70;94.00
44900;DHT22;30628;51.188;6.770;2022-07-21T11:57:22;25.80;95.90
44900;DHT22;30628;51.188;6.770;2022-07-21T11:59:50;26.10;93.10
44900;DHT22;30628;51.188;6.770;2022-07-21T12:02:27;26.10;94.00
44900;DHT22;30628;51.188;6.770;2022-07-21T12:04:59;26.20;94.00
44900;DHT22;30628;51.188;6.770;2022-07-21T12:07:40;26.00;95.20
44900;DHT22;30628;51.188;6.770;2022-07-21T12:10:12;26.10;93.40
44900;DHT22;30628;51.188;6.770;2022-07-21T12:12:39;25.90;94.20
44900;DHT22;30628;51.188;6.770;2022-07-21T12:15:23;25.70;96.90
44900;DHT22;30628;51.188;6.770;2022-07-21T12:17:54;25.60;95.80
44900;DHT22;30628;51.188;6.770;2022-07-21T12:20:30;25.70;95.30
44900;DHT22;30628;51.188;6.770;2022-07-21T12:23:01;25.70;94.90
44900;DHT22;30628;51.188;6.770;2022-07-21T12:25:34;25.70;96.10
44900;DHT22;30628;51.188;6.770;2022-07-21T12:28:01;25.60;93.90
44900;DHT22;30628;51.188;6.770;2022-07-21T12:30:40;25.70;94.60
44900;DHT22;30628;51.188;6.770;2022-07-21T12:33:16;25.60;94.60
44900;DHT22;30628;51.188;6.770;2022-07-21T12:35:46;25.50;95.50
44900;DHT22;30628;51.188;6.770;2022-07-21T12:38:22;25.40;96.50
44900;DHT22;30628;51.188;6.770;2022-07-21T12:40:56;25.50;96.60
44900;DHT22;30628;51.188;6.770;2022-07-21T12:43:24;25.50;94.30
44900;DHT22;30628;51.188;6.770;2022-07-21T12:45:57;25.40;97.00
44900;DHT22;30628;51.188;6.770;2022-07-21T12:53:31;25.40;94.50
44900;DHT22;30628;51.188;6.770;2022-07-21T12:55:58;25.60;95.30
44900;DHT22;30628;51.188;6.770;2022-07-21T12:58:24;25.30;97.20
44900;DHT22;30628;51.188;6.770;2022-07-21T13:00:50;24.90;98.80
44900;DHT22;30628;51.188;6.770;2022-07-21T13:03:17;24.80;99.10
44900;DHT22;30628;51.188;6.770;2022-07-21T13:05:43;24.60;99.00
44900;DHT22;30628;51.188;6.770;2022-07-21T13:08:09;24.60;97.90
44900;DHT22;30628;51.188;6.770;2022-07-21T13:10:36;24.90;99.10
44900;DHT22;30628;51.188;6.770;2022-07-21T13:13:02;24.80;98.90
44900;DHT22;30628;51.188;6.770;2022-07-21T13:15:29;24.60;98.50
44900;DHT22;30628;51.188;6.770;2022-07-21T13:17:55;24.80;96.80
44900;DHT22;30628;51.188;6.770;2022-07-21T13:20:21;25.00;97.10
44900;DHT22;30628;51.188;6.770;2022-07-21T13:22:47;25.20;96.30
44900;DHT22;30628;51.188;6.770;2022-07-21T13:25:13;25.30;97.20
44900;DHT22;30628;51.188;6.770;2022-07-21T13:27:40;25.20;96.60
44900;DHT22;30628;51.188;6.770;2022-07-21T13:30:07;25.10;97.70
44900;DHT22;30628;51.188;6.770;2022-07-21T13:32:35;25.20;95.80
44900;DHT22;30628;51.188;6.770;2022-07-21T13:35:02;25.00;99.10
44900;DHT22;30628;51.188;6.770;2022-07-21T13:37:28;24.90;99.60
44900;DHT22;30628;51.188;6.770;2022-07-21T13:39:54;24.90;97.20
44900;DHT22;30628;51.188;6.770;2022-07-21T13:42:20;25.10;95.80
44900;DHT22;30628;51.188;6.770;2022-07-21T13:44:47;25.30;96.80
44900;DHT22;30628;51.188;6.770;2022-07-21T13:47:14;25.50;97.00
44900;DHT22;30628;51.188;6.770;2022-07-21T13:49:40;25.40;97.40
44900;DHT22;30628;51.188;6.770;2022-07-21T13:52:07;25.40;97.80
44900;DHT22;30628;51.188;6.770;2022-07-21T13:54:33;25.40;97.80
44900;DHT22;30628;51.188;6.770;2022-07-21T13:57:00;25.10;98.40
44900;DHT22;30628;51.188;6.770;2022-07-21T13:59:30;25.10;98.30
44900;DHT22;30628;51.188;6.770;2022-07-21T14:01:57;25.30;98.40
44900;DHT22;30628;51.188;6.770;2022-07-21T14:04:23;25.30;98.30
44900;DHT22;30628;51.188;6.770;2022-07-21T14:06:50;24.80;99.10
44900;DHT22;30628;51.188;6.770;2022-07-21T14:09:18;24.10;99.90
44900;DHT22;30628;51.188;6.770;2022-07-21T14:11:45;23.80;99.90
44900;DHT22;30628;51.188;6.770;2022-07-21T14:14:11;23.90;99.90
44900;DHT22;30628;51.188;6.770;2022-07-21T14:16:43;23.80;99.90
44900;DHT22;30628;51.188;6.770;2022-07-21T14:19:10;23.60;99.90
44900;DHT22;30628;51.188;6.770;2022-07-21T14:21:36;23.40;99.90
44900;DHT22;30628;51.188;6.770;2022-07-21T14:24:02;23.50;99.90
44900;DHT22;30628;51.188;6.770;2022-07-21T14:26:47;23.60;99.90
44900;DHT22;30628;51.188;6.770;2022-07-21T14:29:13;23.40;99.90
44900;DHT22;30628;51.188;6.770;2022-07-21T14:31:39;23.40;99.90
44900;DHT22;30628;51.188;6.770;2022-07-21T14:34:05;23.40;99.90
44900;DHT22;30628;51.188;6.770;2022-07-21T14:36:32;23.40;99.90
44900;DHT22;30628;51.188;6.770;2022-07-21T14:38:58;23.60;99.90
44900;DHT22;30628;51.188;6.770;2022-07-21T14:41:24;23.40;99.90
44900;DHT22;30628;51.188;6.770;2022-07-21T14:43:50;23.70;99.90
44900;DHT22;30628;51.188;6.770;2022-07-21T14:46:17;23.50;99.90
44900;DHT22;30628;51.188;6.770;2022-07-21T14:48:43;23.40;99.90
44900;DHT22;30628;51.188;6.770;2022-07-21T14:51:09;23.40;99.90
44900;DHT22;30628;51.188;6.770;2022-07-21T14:53:35;23.20;99.90
44900;DHT22;30628;51.188;6.770;2022-07-21T14:56:02;23.30;99.90
44900;DHT22;30628;51.188;6.770;2022-07-21T14:58:28;23.50;99.90
44900;DHT22;30628;51.188;6.770;2022-07-21T15:00:54;23.70;99.90
44900;DHT22;30628;51.188;6.770;2022-07-21T15:03:21;23.80;99.90
44900;DHT22;30628;51.188;6.770;2022-07-21T15:05:47;24.00;99.90
44900;DHT22;30628;51.188;6.770;2022-07-21T15:08:13;24.00;99.90
44900;DHT22;30628;51.188;6.770;2022-07-21T15:10:40;24.10;99.90
44900;DHT22;30628;51.188;6.770;2022-07-21T15:13:10;24.20;99.90
44900;DHT22;30628;51.188;6.770;2022-07-21T15:15:39;24.20;99.90
44900;DHT22;30628;51.188;6.770;2022-07-21T15:18:07;24.00;99.90
44900;DHT22;30628;51.188;6.770;2022-07-21T15:20:34;23.80;99.90
44900;DHT22;30628;51.188;6.770;2022-07-21T15:23:00;23.40;99.90
44900;DHT22;30628;51.188;6.770;2022-07-21T15:25:27;23.20;99.90
44900;DHT22;30628;51.188;6.770;2022-07-21T15:27:53;23.20;99.90
44900;DHT22;30628;51.188;6.770;2022-07-21T15:30:20;23.20;99.90
44900;DHT22;30628;51.188;6.770;2022-07-21T15:32:46;23.40;99.90
44900;DHT22;30628;51.188;6.770;2022-07-21T15:35:17;23.40;99.90
44900;DHT22;30628;51.188;6.770;2022-07-21T15:37:44;23.20;99.90
44900;DHT22;30628;51.188;6.770;2022-07-21T15:40:13;23.50;99.90
44900;DHT22;30628;51.188;6.770;2022-07-21T15:42:41;23.40;99.90
44900;DHT22;30628;51.188;6.770;2022-07-21T15:45:11;23.30;99.90
44900;DHT22;30628;51.188;6.770;2022-07-21T15:47:38;23.00;99.90
44900;DHT22;30628;51.188;6.770;2022-07-21T15:50:05;22.80;99.90
44900;DHT22;30628;51.188;6.770;2022-07-21T15:52:31;22.70;99.90
44900;DHT22;30628;51.188;6.770;2022-07-21T15:54:58;22.50;99.90
44900;DHT22;30628;51.188;6.770;2022-07-21T15:57:24;22.60;99.90
44900;DHT22;30628;51.188;6.770;2022-07-21T15:59:51;22.80;99.90
44900;DHT22;30628;51.188;6.770;2022-07-21T16:02:17;22.70;99.90
44900;DHT22;30628;51.188;6.770;2022-07-21T16:04:45;22.70;99.90
44900;DHT22;30628;51.188;6.770;2022-07-21T16:07:16;22.60;99.90
44900;DHT22;30628;51.188;6.770;2022-07-21T16:09:42;22.50;99.90
44900;DHT22;30628;51.188;6.770;2022-07-21T16:12:10;22.40;99.90